createdAt,value
2017-10-06T00:00:00.146Z,10.8
2017-10-06T00:04:00.689Z,10.6
2017-10-06T00:14:01.084Z,10.8
2017-10-06T00:18:01.426Z,10.9
2017-10-06T00:22:01.670Z,10.8
2017-10-06T00:23:01.739Z,10.9
2017-10-06T00:24:01.886Z,10.8
2017-10-06T00:28:02.043Z,10.6
2017-10-06T00:34:02.487Z,10.5
2017-10-06T00:49:03.528Z,10.6
2017-10-06T00:53:03.784Z,10.5
2017-10-06T01:04:04.489Z,10.6
2017-10-06T01:11:04.983Z,10.5
2017-10-06T01:14:05.180Z,10.4
2017-10-06T01:17:05.449Z,10.3
2017-10-06T01:21:05.647Z,10.1
2017-10-06T01:31:06.369Z,10
2017-10-06T01:39:06.922Z,10.1
2017-10-06T01:43:07.204Z,10
2017-10-06T01:49:07.550Z,9.9
2017-10-06T02:01:08.377Z,9.8
2017-10-06T02:02:08.502Z,9.9
2017-10-06T02:03:08.504Z,9.8
2017-10-06T02:13:09.152Z,9.6
2017-10-06T02:15:09.362Z,9.8
2017-10-06T02:23:09.988Z,9.9
2017-10-06T02:26:10.168Z,10
2017-10-06T02:30:11.118Z,10.1
2017-10-06T02:33:10.602Z,10.3
2017-10-06T02:36:10.836Z,10.4
2017-10-06T02:37:10.895Z,10.3
2017-10-06T02:38:10.963Z,10.4
2017-10-06T02:48:11.653Z,10.5
2017-10-06T02:59:12.446Z,10.6
2017-10-06T03:01:12.551Z,10.5
2017-10-06T03:14:13.444Z,10.6
2017-10-06T03:35:14.883Z,10.5
2017-10-06T03:41:15.255Z,10.4
2017-10-06T03:46:15.635Z,10.3
2017-10-06T03:47:15.737Z,10.4
2017-10-06T03:48:15.759Z,10.3
2017-10-06T03:49:15.818Z,10.4
2017-10-06T03:50:15.933Z,10.3
2017-10-06T03:51:15.918Z,10.4
2017-10-06T03:56:16.306Z,10.5
2017-10-06T04:10:17.256Z,10.4
2017-10-06T04:18:17.824Z,10.3
2017-10-06T04:19:17.809Z,10.4
2017-10-06T04:27:18.358Z,10.5
2017-10-06T04:28:18.571Z,10.4
2017-10-06T04:29:18.513Z,10.5
2017-10-06T04:36:19.025Z,10.6
2017-10-06T04:46:19.637Z,10.5
2017-10-06T04:51:19.968Z,10.4
2017-10-06T04:59:20.529Z,10.3
2017-10-06T05:06:21.018Z,10.4
2017-10-06T05:09:21.245Z,10.3
2017-10-06T05:10:21.323Z,10.4
2017-10-06T05:12:21.474Z,10.3
2017-10-06T05:19:21.956Z,10.4
2017-10-06T05:28:22.587Z,10.5
2017-10-06T05:34:22.908Z,10.6
2017-10-06T05:44:23.654Z,10.8
2017-10-06T05:48:23.910Z,10.9
2017-10-06T05:53:24.208Z,11
2017-10-06T05:57:24.518Z,11.1
2017-10-06T05:58:24.584Z,11.3
2017-10-06T05:59:24.652Z,11.4
2017-10-06T06:00:24.719Z,11.5
2017-10-06T06:01:24.783Z,11.6
2017-10-06T06:04:24.994Z,11.8
2017-10-06T06:10:25.397Z,11.9
2017-10-06T06:11:25.452Z,11.8
2017-10-06T06:21:26.095Z,11.9
2017-10-06T06:23:26.277Z,12
2017-10-06T06:24:26.307Z,12.1
2017-10-06T06:25:26.457Z,12.2
2017-10-06T06:30:26.707Z,12.1
2017-10-06T06:32:26.838Z,12
2017-10-06T06:38:27.251Z,12.1
2017-10-06T06:40:27.407Z,12.2
2017-10-06T06:41:27.470Z,12.4
2017-10-06T06:46:27.856Z,12.5
2017-10-06T06:47:27.921Z,12.6
2017-10-06T06:48:27.980Z,12.9
2017-10-06T06:49:28.044Z,13.1
2017-10-06T06:50:28.071Z,13.3
2017-10-06T06:51:28.189Z,13.5
2017-10-06T06:52:28.250Z,13.9
2017-10-06T06:53:28.303Z,14
2017-10-06T06:54:28.403Z,14.1
2017-10-06T06:55:28.437Z,14.5
2017-10-06T06:57:28.600Z,14.7
2017-10-06T06:58:28.623Z,15.6
2017-10-06T06:59:28.695Z,17.1
2017-10-06T07:00:28.783Z,17.9
2017-10-06T07:01:28.837Z,18.1
2017-10-06T07:02:28.887Z,18.5
2017-10-06T07:03:28.966Z,18
2017-10-06T07:04:29.069Z,17.4
2017-10-06T07:05:29.107Z,16.8
2017-10-06T07:06:29.168Z,16.3
2017-10-06T07:07:29.299Z,15.9
2017-10-06T07:08:29.343Z,15.4
2017-10-06T07:09:29.401Z,15.1
2017-10-06T07:10:29.481Z,14.9
2017-10-06T07:13:29.665Z,15.1
2017-10-06T07:14:29.765Z,16.4
2017-10-06T07:15:29.814Z,16.9
2017-10-06T07:16:29.854Z,18.3
2017-10-06T07:17:29.913Z,18.1
2017-10-06T07:18:29.988Z,18.3
2017-10-06T07:19:30.101Z,19.3
2017-10-06T07:20:30.116Z,20.1
2017-10-06T07:21:30.181Z,21.1
2017-10-06T07:22:30.255Z,21.6
2017-10-06T07:23:30.377Z,22.6
2017-10-06T07:24:30.429Z,23.3
2017-10-06T07:25:30.521Z,24.1
2017-10-06T07:26:30.567Z,23.7
2017-10-06T07:27:30.663Z,22.9
2017-10-06T07:28:30.709Z,22.1
2017-10-06T07:29:30.773Z,21.4
2017-10-06T07:30:30.851Z,20.9
2017-10-06T07:31:30.888Z,20.5
2017-10-06T07:32:30.948Z,20.3
2017-10-06T07:33:31.050Z,20
2017-10-06T07:34:31.067Z,19.9
2017-10-06T07:35:31.196Z,19.8
2017-10-06T07:36:31.253Z,19.6
2017-10-06T07:37:31.343Z,19.4
2017-10-06T07:38:31.380Z,19.3
2017-10-06T07:39:31.591Z,18.9
2017-10-06T07:40:31.556Z,18.5
2017-10-06T07:41:31.554Z,18.3
2017-10-06T07:42:31.663Z,18
2017-10-06T07:43:31.698Z,17.6
2017-10-06T07:44:31.741Z,17.4
2017-10-06T07:45:31.820Z,17.1
2017-10-06T07:46:31.885Z,16.8
2017-10-06T07:47:31.943Z,16.3
2017-10-06T07:48:32.007Z,16
2017-10-06T07:49:32.080Z,15.8
2017-10-06T07:50:32.158Z,15.6
2017-10-06T07:51:32.268Z,15.5
2017-10-06T07:52:32.268Z,15.6
2017-10-06T07:54:32.475Z,15.8
2017-10-06T07:57:32.666Z,15.9
2017-10-06T07:58:32.684Z,16
2017-10-06T08:01:32.959Z,15.9
2017-10-06T08:02:32.945Z,15.6
2017-10-06T08:03:33.018Z,15.3
2017-10-06T08:04:33.088Z,15
2017-10-06T08:05:33.148Z,14.6
2017-10-06T08:06:33.259Z,14.4
2017-10-06T08:07:33.324Z,14.1
2017-10-06T08:08:33.382Z,13.9
2017-10-06T08:09:33.502Z,13.6
2017-10-06T08:10:33.528Z,13.4
2017-10-06T08:11:33.601Z,13.1
2017-10-06T08:12:33.672Z,12.9
2017-10-06T08:13:33.750Z,12.8
2017-10-06T08:14:33.854Z,12.5
2017-10-06T08:15:33.901Z,12.4
2017-10-06T08:16:33.979Z,12.2
2017-10-06T08:17:34.013Z,12.1
2017-10-06T08:18:34.158Z,12
2017-10-06T08:19:34.151Z,11.9
2017-10-06T08:22:34.361Z,12
2017-10-06T08:24:34.506Z,12.1
2017-10-06T08:25:34.556Z,12.2
2017-10-06T08:26:34.593Z,12.5
2017-10-06T08:27:34.707Z,12.8
2017-10-06T08:28:34.722Z,13
2017-10-06T08:29:34.794Z,13.3
2017-10-06T08:30:34.913Z,13.5
2017-10-06T08:31:34.932Z,13.8
2017-10-06T08:32:34.984Z,14
2017-10-06T08:33:35.098Z,14.3
2017-10-06T08:34:35.123Z,14.6
2017-10-06T08:35:35.253Z,14.9
2017-10-06T08:36:35.320Z,15.1
2017-10-06T08:37:35.341Z,15.4
2017-10-06T08:38:35.429Z,15.6
2017-10-06T08:39:35.482Z,15.8
2017-10-06T08:40:35.619Z,16
2017-10-06T08:41:35.633Z,16.3
2017-10-06T08:42:35.729Z,16.8
2017-10-06T08:43:35.772Z,17.5
2017-10-06T08:44:35.815Z,18.1
2017-10-06T08:45:35.898Z,18.9
2017-10-06T08:46:35.950Z,19.3
2017-10-06T08:47:36.067Z,20.8
2017-10-06T08:48:36.092Z,22.4
2017-10-06T08:49:36.197Z,23.9
2017-10-06T08:50:36.249Z,24.9
2017-10-06T08:52:36.419Z,24.4
2017-10-06T08:53:36.472Z,23.7
2017-10-06T08:54:36.521Z,23.1
2017-10-06T08:55:36.636Z,22.5
2017-10-06T08:56:36.689Z,22
2017-10-06T08:57:36.780Z,21.8
2017-10-06T08:58:36.823Z,21.5
2017-10-06T08:59:36.887Z,21.4
2017-10-06T09:00:36.955Z,21
2017-10-06T09:01:37.041Z,20.5
2017-10-06T09:02:37.092Z,20.1
2017-10-06T09:03:37.220Z,20
2017-10-06T09:04:37.234Z,19.6
2017-10-06T09:05:37.303Z,19.5
2017-10-06T09:06:37.359Z,19.3
2017-10-06T09:07:37.402Z,19.1
2017-10-06T09:08:37.438Z,19
2017-10-06T09:10:37.574Z,18.9
2017-10-06T09:14:37.887Z,19.1
2017-10-06T09:15:37.987Z,19.9
2017-10-06T09:16:38.035Z,20.4
2017-10-06T09:17:38.117Z,20.8
2017-10-06T09:18:38.228Z,21
2017-10-06T09:20:38.326Z,21.1
2017-10-06T09:21:38.440Z,21.9
2017-10-06T09:22:38.487Z,23.3
2017-10-06T09:23:38.553Z,24.4
2017-10-06T09:24:38.623Z,25.5
2017-10-06T09:25:38.686Z,26.4
2017-10-06T09:26:38.726Z,26.9
2017-10-06T09:27:38.775Z,27
2017-10-06T09:28:38.865Z,27.1
2017-10-06T09:29:38.920Z,27.4
2017-10-06T09:31:39.047Z,27.6
2017-10-06T09:32:39.132Z,28.3
2017-10-06T09:33:39.223Z,29.5
2017-10-06T09:34:39.251Z,31
2017-10-06T09:35:39.344Z,32.1
2017-10-06T09:36:39.385Z,31.9
2017-10-06T09:37:39.469Z,31.1
2017-10-06T09:38:39.567Z,30.8
2017-10-06T09:39:39.655Z,30
2017-10-06T09:40:39.721Z,31.5
2017-10-06T09:41:39.755Z,32.7
2017-10-06T09:42:39.843Z,33.6
2017-10-06T09:43:39.914Z,33.7
2017-10-06T09:44:39.956Z,34.4
2017-10-06T09:45:40.065Z,32.9
2017-10-06T09:46:40.122Z,32.4
2017-10-06T09:47:40.211Z,31.2
2017-10-06T09:48:40.200Z,29.9
2017-10-06T09:49:40.317Z,28.6
2017-10-06T09:50:40.373Z,28
2017-10-06T09:51:40.424Z,28.3
2017-10-06T09:52:40.462Z,29.3
2017-10-06T09:53:41.081Z,29.1
2017-10-06T09:54:40.633Z,28.1
2017-10-06T09:55:40.687Z,28.3
2017-10-06T09:56:40.800Z,28.4
2017-10-06T09:57:40.826Z,28.9
2017-10-06T09:58:40.898Z,30.1
2017-10-06T09:59:40.975Z,30.4
2017-10-06T10:00:41.093Z,30.5
2017-10-06T10:01:41.137Z,29.3
2017-10-06T10:02:41.215Z,27.9
2017-10-06T10:03:41.235Z,26.8
2017-10-06T10:04:41.370Z,25.8
2017-10-06T10:05:41.433Z,24.7
2017-10-06T10:06:41.472Z,24.1
2017-10-06T10:07:41.576Z,23.7
2017-10-06T10:09:41.644Z,23.5
2017-10-06T10:10:41.716Z,23.1
2017-10-06T10:11:41.805Z,23
2017-10-06T10:12:41.891Z,22.8
2017-10-06T10:13:41.937Z,22.2
2017-10-06T10:14:41.979Z,22
2017-10-06T10:15:42.060Z,21.8
2017-10-06T10:16:42.135Z,21.2
2017-10-06T10:17:42.232Z,21
2017-10-06T10:18:42.314Z,20.6
2017-10-06T10:19:42.383Z,20.3
2017-10-06T10:20:42.475Z,19.6
2017-10-06T10:21:42.522Z,19.1
2017-10-06T10:22:42.603Z,18.8
2017-10-06T10:23:42.656Z,18.3
2017-10-06T10:24:42.729Z,18
2017-10-06T10:25:42.792Z,17.9
2017-10-06T10:26:42.857Z,17.8
2017-10-06T10:27:42.940Z,17.9
2017-10-06T10:28:42.999Z,18.1
2017-10-06T10:29:43.074Z,18.6
2017-10-06T10:30:43.117Z,19.4
2017-10-06T10:31:43.186Z,20.3
2017-10-06T10:32:43.296Z,20.8
2017-10-06T10:33:43.354Z,21
2017-10-06T10:34:43.398Z,21.1
2017-10-06T10:35:43.472Z,21.2
2017-10-06T10:37:43.550Z,21.1
2017-10-06T10:39:43.691Z,21.4
2017-10-06T10:40:43.790Z,21.6
2017-10-06T10:41:43.851Z,22.1
2017-10-06T10:42:43.900Z,22.5
2017-10-06T10:43:43.958Z,22.8
2017-10-06T10:44:44.050Z,22.4
2017-10-06T10:45:44.154Z,22
2017-10-06T10:46:44.180Z,21.6
2017-10-06T10:47:44.292Z,21.4
2017-10-06T10:48:44.305Z,21
2017-10-06T10:49:44.444Z,20.6
2017-10-06T10:50:44.450Z,20.5
2017-10-06T10:51:44.524Z,20.4
2017-10-06T10:53:44.685Z,20.3
2017-10-06T10:56:44.832Z,20.4
2017-10-06T10:57:44.911Z,20.8
2017-10-06T10:58:44.979Z,21.1
2017-10-06T10:59:45.053Z,23.4
2017-10-06T11:00:45.096Z,24
2017-10-06T11:01:45.201Z,23.3
2017-10-06T11:02:45.258Z,22.5
2017-10-06T11:03:45.305Z,21.8
2017-10-06T11:04:45.395Z,21.1
2017-10-06T11:05:45.452Z,20.6
2017-10-06T11:06:45.568Z,20.4
2017-10-06T11:07:45.636Z,20.6
2017-10-06T11:08:45.684Z,21.1
2017-10-06T11:09:45.762Z,21.2
2017-10-06T11:10:45.829Z,21
2017-10-06T11:11:45.860Z,20.9
2017-10-06T11:12:45.966Z,20.4
2017-10-06T11:13:46.013Z,19.9
2017-10-06T11:14:46.107Z,19.6
2017-10-06T11:15:46.194Z,19.5
2017-10-06T11:18:46.355Z,19.8
2017-10-06T11:19:46.436Z,20.1
2017-10-06T11:21:46.542Z,19.9
2017-10-06T11:24:46.926Z,19.8
2017-10-06T11:25:48.309Z,19.6
2017-10-06T11:27:46.922Z,19.5
2017-10-06T11:28:46.993Z,19.3
2017-10-06T11:29:47.061Z,18.9
2017-10-06T11:30:47.241Z,18.6
2017-10-06T11:31:47.253Z,18.5
2017-10-06T11:32:47.266Z,18.4
2017-10-06T11:33:47.315Z,18.1
2017-10-06T11:36:47.600Z,18.5
2017-10-06T11:37:47.636Z,19
2017-10-06T11:38:47.668Z,19.5
2017-10-06T11:39:47.723Z,20
2017-10-06T11:40:47.812Z,20.3
2017-10-06T11:43:47.986Z,20
2017-10-06T11:45:48.136Z,20.1
2017-10-06T11:46:48.236Z,20.8
2017-10-06T11:47:48.301Z,21.1
2017-10-06T11:48:48.346Z,22.2
2017-10-06T11:49:48.397Z,22.1
2017-10-06T11:50:48.477Z,21.9
2017-10-06T11:51:48.551Z,21.6
2017-10-06T11:52:48.644Z,21.4
2017-10-06T11:53:48.743Z,21
2017-10-06T11:54:48.785Z,20.8
2017-10-06T11:55:48.872Z,20.3
2017-10-06T11:56:48.935Z,20
2017-10-06T11:57:49.005Z,19.9
2017-10-06T11:58:49.079Z,19.8
2017-10-06T12:00:49.189Z,19.4
2017-10-06T12:01:49.263Z,18.9
2017-10-06T12:02:49.299Z,18.4
2017-10-06T12:03:49.385Z,18
2017-10-06T12:04:49.479Z,17.6
2017-10-06T12:05:49.509Z,17.2
2017-10-06T12:06:49.568Z,16.8
2017-10-06T12:07:49.638Z,16.3
2017-10-06T12:08:49.758Z,16
2017-10-06T12:09:49.766Z,15.9
2017-10-06T12:10:49.851Z,15.6
2017-10-06T12:12:49.973Z,15.8
2017-10-06T12:13:50.078Z,16.1
2017-10-06T12:14:50.174Z,16.5
2017-10-06T12:15:50.510Z,16.9
2017-10-06T12:16:50.565Z,17.2
2017-10-06T12:18:50.762Z,16.9
2017-10-06T12:19:50.771Z,16.6
2017-10-06T12:20:50.985Z,16.5
2017-10-06T12:21:50.918Z,16.3
2017-10-06T12:22:51.033Z,16.1
2017-10-06T12:23:51.033Z,16
2017-10-06T12:25:51.179Z,16.1
2017-10-06T12:26:51.253Z,16.3
2017-10-06T12:27:51.345Z,16.4
2017-10-06T12:28:51.434Z,16.5
2017-10-06T12:30:51.548Z,16.6
2017-10-06T12:35:51.871Z,16.9
2017-10-06T12:36:51.995Z,17.4
2017-10-06T12:37:52.067Z,17.8
2017-10-06T12:38:52.108Z,18
2017-10-06T12:39:52.207Z,18.3
2017-10-06T12:40:52.293Z,18.4
2017-10-06T12:42:52.350Z,18.5
2017-10-06T12:45:52.598Z,18.6
2017-10-06T12:46:52.694Z,18.8
2017-10-06T12:48:52.776Z,18.6
2017-10-06T12:49:52.850Z,18.4
2017-10-06T12:50:52.927Z,18.1
2017-10-06T12:51:52.968Z,18
2017-10-06T12:53:53.106Z,18.1
2017-10-06T12:55:53.225Z,18
2017-10-06T12:56:53.357Z,17.9
2017-10-06T12:57:53.390Z,17.8
2017-10-06T12:58:53.452Z,17.6
2017-10-06T13:01:53.676Z,17.8
2017-10-06T13:02:53.720Z,17.6
2017-10-06T13:03:53.779Z,17.5
2017-10-06T13:04:53.851Z,17.4
2017-10-06T13:05:53.932Z,17.2
2017-10-06T13:06:54.058Z,17
2017-10-06T13:07:54.050Z,16.8
2017-10-06T13:08:54.149Z,16.5
2017-10-06T13:09:54.204Z,16.4
2017-10-06T13:14:54.566Z,16.5
2017-10-06T13:15:54.642Z,16.8
2017-10-06T13:16:54.784Z,17
2017-10-06T13:17:54.839Z,17.1
2017-10-06T13:19:54.918Z,17
2017-10-06T13:20:55.054Z,16.9
2017-10-06T13:25:55.324Z,16.8
2017-10-06T13:27:55.470Z,16.9
2017-10-06T13:28:55.488Z,17.2
2017-10-06T13:29:55.561Z,17.8
2017-10-06T13:30:55.663Z,18.1
2017-10-06T13:31:55.683Z,18
2017-10-06T13:32:55.792Z,17.9
2017-10-06T13:33:55.833Z,17.5
2017-10-06T13:34:55.894Z,17.1
2017-10-06T13:35:55.956Z,16.9
2017-10-06T13:36:56.029Z,16.6
2017-10-06T13:37:56.089Z,16.8
2017-10-06T13:38:56.154Z,17.2
2017-10-06T13:39:56.270Z,17.6
2017-10-06T13:40:56.667Z,17.9
2017-10-06T13:41:56.732Z,18.5
2017-10-06T13:42:56.790Z,18.6
2017-10-06T13:43:56.882Z,19.1
2017-10-06T13:44:56.931Z,19
2017-10-06T13:45:57.004Z,18.8
2017-10-06T13:47:57.147Z,19.5
2017-10-06T13:48:57.227Z,21.5
2017-10-06T13:49:57.292Z,22
2017-10-06T13:50:57.700Z,21.6
2017-10-06T13:51:57.481Z,21.5
2017-10-06T13:52:57.570Z,20.9
2017-10-06T13:53:57.617Z,20.3
2017-10-06T13:54:57.641Z,19.9
2017-10-06T13:55:57.755Z,19.4
2017-10-06T13:56:57.824Z,19.1
2017-10-06T13:57:57.875Z,19
2017-10-06T13:58:57.890Z,18.9
2017-10-06T14:00:58.085Z,18.6
2017-10-06T14:01:58.189Z,18.4
2017-10-06T14:03:58.363Z,18.5
2017-10-06T14:04:58.380Z,19.5
2017-10-06T14:05:58.505Z,20.9
2017-10-06T14:06:58.520Z,21.5
2017-10-06T14:07:58.582Z,20.5
2017-10-06T14:08:58.722Z,20
2017-10-06T14:09:58.742Z,21.5
2017-10-06T14:10:58.833Z,22.4
2017-10-06T14:11:58.879Z,23.1
2017-10-06T14:12:58.952Z,22.5
2017-10-06T14:13:58.987Z,23
2017-10-06T14:14:59.058Z,22.4
2017-10-06T14:15:59.133Z,21.5
2017-10-06T14:16:59.288Z,20.6
2017-10-06T14:17:59.330Z,20
2017-10-06T14:18:59.389Z,19.4
2017-10-06T14:19:59.468Z,18.9
2017-10-06T14:20:59.580Z,18.4
2017-10-06T14:21:59.602Z,18.3
2017-10-06T14:22:59.832Z,18.1
2017-10-06T14:23:59.893Z,18
2017-10-06T14:24:59.958Z,19
2017-10-06T14:26:00.022Z,20.1
2017-10-06T14:27:00.209Z,21.2
2017-10-06T14:28:00.173Z,22.1
2017-10-06T14:29:00.282Z,21.6
2017-10-06T14:30:00.884Z,20.9
2017-10-06T14:31:00.844Z,20.5
2017-10-06T14:32:00.643Z,20
2017-10-06T14:33:00.725Z,19.6
2017-10-06T14:34:00.674Z,19.9
2017-10-06T14:35:00.818Z,19.8
2017-10-06T14:36:00.736Z,19.5
2017-10-06T14:37:00.859Z,19
2017-10-06T14:38:00.866Z,18.9
2017-10-06T14:39:00.940Z,20
2017-10-06T14:40:00.994Z,20.8
2017-10-06T14:41:01.092Z,20.3
2017-10-06T14:42:01.143Z,19.6
2017-10-06T14:43:01.195Z,19.3
2017-10-06T14:44:01.313Z,18.8
2017-10-06T14:45:01.388Z,18.4
2017-10-06T14:46:01.394Z,18
2017-10-06T14:47:01.481Z,17.6
2017-10-06T14:48:01.569Z,17.2
2017-10-06T14:49:01.610Z,17
2017-10-06T14:50:01.655Z,16.8
2017-10-06T14:51:01.793Z,16.6
2017-10-06T14:52:01.789Z,16.4
2017-10-06T14:53:01.863Z,16.3
2017-10-06T14:54:01.984Z,16.1
2017-10-06T14:55:02.012Z,16
2017-10-06T14:56:02.054Z,15.8
2017-10-06T14:57:02.211Z,15.5
2017-10-06T14:58:02.195Z,15.3
2017-10-06T14:59:02.311Z,15.1
2017-10-06T15:00:02.333Z,15
2017-10-06T15:01:02.429Z,14.9
2017-10-06T15:02:02.500Z,14.6
2017-10-06T15:03:02.587Z,14.5
2017-10-06T15:04:02.654Z,14.4
2017-10-06T15:05:02.679Z,14.3
2017-10-06T15:07:02.815Z,14.1
2017-10-06T15:09:02.931Z,14
2017-10-06T15:10:03.000Z,13.9
2017-10-06T15:11:03.073Z,13.8
2017-10-06T15:12:03.139Z,13.9
2017-10-06T15:13:03.195Z,13.8
2017-10-06T15:14:03.312Z,13.9
2017-10-06T15:15:03.382Z,13.8
2017-10-06T15:17:03.520Z,13.6
2017-10-06T15:19:03.656Z,13.5
2017-10-06T15:20:03.719Z,13.4
2017-10-06T15:25:04.020Z,13.3
2017-10-06T15:27:04.218Z,13.1
2017-10-06T15:37:04.831Z,13
2017-10-06T15:42:05.193Z,13.1
2017-10-06T15:43:05.247Z,13
2017-10-06T15:44:05.344Z,13.1
2017-10-06T15:45:05.394Z,13
2017-10-06T15:46:05.499Z,13.1
2017-10-06T15:47:05.538Z,13.3
2017-10-06T16:02:07.239Z,13.4
2017-10-06T16:04:07.373Z,13.5
2017-10-06T16:06:07.596Z,13.4
2017-10-06T16:09:07.743Z,13.3
2017-10-06T16:11:07.885Z,13.1
2017-10-06T16:13:08.032Z,13
2017-10-06T16:15:08.141Z,12.9
2017-10-06T16:17:08.278Z,12.8
2017-10-06T16:19:08.411Z,12.6
2017-10-06T16:23:09.314Z,12.5
2017-10-06T16:30:10.119Z,12.4
2017-10-06T16:40:10.727Z,12.2
2017-10-06T16:43:10.949Z,12.1
2017-10-06T16:47:11.409Z,12
2017-10-06T16:53:11.792Z,11.9
2017-10-06T16:54:12.044Z,12
2017-10-06T17:01:12.546Z,12.1
2017-10-06T17:02:12.627Z,12
2017-10-06T17:03:12.627Z,12.1
2017-10-06T17:05:12.814Z,12
2017-10-06T17:11:13.204Z,11.9
2017-10-06T17:16:13.518Z,11.8
2017-10-06T17:21:13.813Z,11.6
2017-10-06T17:23:13.954Z,11.8
2017-10-06T17:44:15.391Z,11.9
2017-10-06T17:45:15.490Z,11.8
2017-10-06T18:01:16.543Z,11.9
2017-10-06T18:06:16.860Z,12
2017-10-06T18:21:17.896Z,11.9
2017-10-06T18:28:18.359Z,11.8
2017-10-06T18:34:18.864Z,11.6
2017-10-06T18:39:19.126Z,11.8
2017-10-06T18:50:19.865Z,11.6
2017-10-06T18:51:19.904Z,11.8
2017-10-06T18:52:19.984Z,11.6
2017-10-06T19:13:21.445Z,11.5
2017-10-06T19:28:22.425Z,11.4
2017-10-06T19:49:23.723Z,11.3
2017-10-06T19:58:24.323Z,11.1
2017-10-06T20:05:24.865Z,11
2017-10-06T20:06:24.876Z,11.1
2017-10-06T20:08:25.058Z,11
2017-10-06T20:11:25.228Z,11.1
2017-10-06T20:12:25.338Z,11
2017-10-06T20:13:25.405Z,11.1
2017-10-06T20:15:25.494Z,11
2017-10-06T20:16:25.575Z,11.1
2017-10-06T20:19:25.773Z,11
2017-10-06T20:20:25.809Z,11.1
2017-10-06T20:21:25.877Z,11
2017-10-06T20:22:25.949Z,11.1
2017-10-06T20:23:26.022Z,11
2017-10-06T20:27:26.333Z,11.1
2017-10-06T20:37:26.958Z,11.3
2017-10-06T20:42:27.616Z,11.4
2017-10-06T20:43:27.392Z,11.3
2017-10-06T20:44:27.505Z,11.4
2017-10-06T20:48:27.996Z,11.5
2017-10-06T20:52:27.992Z,11.6
2017-10-06T20:59:28.493Z,11.8
2017-10-06T21:06:28.913Z,11.6
2017-10-06T21:10:29.214Z,11.5
2017-10-06T21:19:29.858Z,11.6
2017-10-06T21:20:29.844Z,11.5
2017-10-06T21:41:31.279Z,11.6
2017-10-06T21:51:31.924Z,11.8
2017-10-06T21:58:32.403Z,11.9
2017-10-06T22:26:34.291Z,11.8
2017-10-06T22:31:34.590Z,11.9
2017-10-06T22:51:36.010Z,12
2017-10-06T22:52:36.006Z,11.9
2017-10-06T22:55:36.243Z,12
2017-10-06T22:56:36.290Z,11.9
2017-10-06T23:41:40.151Z,12
